Time;durP1;ratioP1;P1;durP2;ratioP2;P2;SDS_P1;SDS_P2;PMS_P1;PMS_P2;Temp;Humidity;BMP_temperature;BMP_pressure;BME280_temperature;BME280_humidity;BME280_pressure;Samples;Min_cycle;Max_cycle;Signal;HPM_P1;HPM_P2
2022/05/08 00:00:49;;;;;;;30.83;8.18;;;;;;;;;;4952817;29;20032;-76
2022/05/08 00:03:15;;;;;;;21.45;8.55;;;;;;;;;;4952924;29;20485;-76
2022/05/08 00:05:41;;;;;;;12.80;6.97;;;;;;;;;;4952575;29;20335;-76
2022/05/08 00:08:07;;;;;;;16.15;7.22;;;;;;;;;;4954383;28;20067;-76
2022/05/08 00:10:33;;;;;;;16.55;7.13;;;;;;;;;;4971757;28;20504;-76
2022/05/08 00:12:59;;;;;;;20.50;7.60;;;;;;;;;;4972244;28;20030;-76
2022/05/08 00:15:26;;;;;;;16.42;7.28;;;;;;;;;;4970445;28;20026;-76
2022/05/08 00:17:52;;;;;;;17.27;7.50;;;;;;;;;;4971377;28;20515;-76
2022/05/08 00:20:18;;;;;;;13.80;6.93;;;;;;;;;;4971821;28;20054;-75
2022/05/08 00:22:44;;;;;;;16.75;7.53;;;;;;;;;;4971958;28;20034;-75
2022/05/08 00:25:11;;;;;;;14.57;6.95;;;;;;;;;;4971763;28;20043;-75
2022/05/08 00:27:37;;;;;;;18.33;6.97;;;;;;;;;;4972064;28;20027;-74
2022/05/08 00:30:03;;;;;;;14.82;6.70;;;;;;;;;;4971942;28;20500;-74
2022/05/08 00:32:29;;;;;;;17.40;7.25;;;;;;;;;;4971584;28;20062;-75
2022/05/08 00:34:55;;;;;;;25.60;8.05;;;;;;;;;;4971720;28;20030;-74
2022/05/08 00:37:21;;;;;;;18.73;7.20;;;;;;;;;;4971559;28;20505;-75
2022/05/08 00:39:47;;;;;;;17.70;7.65;;;;;;;;;;4970669;28;20030;-74
2022/05/08 00:42:13;;;;;;;27.85;8.95;;;;;;;;;;4970027;28;20114;-75
2022/05/08 00:44:39;;;;;;;28.92;7.20;;;;;;;;;;4971577;28;20111;-74
2022/05/08 00:47:05;;;;;;;19.55;7.03;;;;;;;;;;4970454;28;20114;-75
2022/05/08 00:49:32;;;;;;;19.75;6.88;;;;;;;;;;4971671;28;20347;-74
2022/05/08 00:51:59;;;;;;;16.02;6.50;;;;;;;;;;4971337;28;20049;-75
2022/05/08 00:54:26;;;;;;;17.00;7.00;;;;;;;;;;4971318;28;20042;-75
2022/05/08 00:56:53;;;;;;;14.68;6.00;;;;;;;;;;4962811;28;20481;-75
2022/05/08 00:59:19;;;;;;;22.88;7.38;;;;;;;;;;4952424;28;20019;-75
2022/05/08 01:01:46;;;;;;;17.20;7.15;;;;;;;;;;4952121;28;20035;-75
2022/05/08 01:04:12;;;;;;;13.68;5.97;;;;;;;;;;4952280;28;20032;-74
2022/05/08 01:06:38;;;;;;;22.60;6.80;;;;;;;;;;4950523;28;20401;-75
2022/05/08 01:09:04;;;;;;;18.60;7.20;;;;;;;;;;4960233;28;20031;-75
2022/05/08 01:11:30;;;;;;;19.23;6.55;;;;;;;;;;4970907;28;20034;-75
2022/05/08 01:13:56;;;;;;;19.88;5.95;;;;;;;;;;4971022;28;20019;-76
2022/05/08 01:16:22;;;;;;;15.82;5.88;;;;;;;;;;4969551;28;20026;-74
2022/05/08 01:18:49;;;;;;;24.80;6.53;;;;;;;;;;4970998;28;20384;-75
2022/05/08 01:21:19;;;;;;;17.25;5.55;;;;;;;;;;4970685;28;20047;-75
2022/05/08 01:23:46;;;;;;;21.63;6.25;;;;;;;;;;4970921;28;20086;-75
2022/05/08 01:26:12;;;;;;;20.20;5.43;;;;;;;;;;4970827;28;20462;-75
2022/05/08 01:28:38;;;;;;;19.85;6.80;;;;;;;;;;4972932;28;20202;-74
2022/05/08 01:31:04;;;;;;;19.05;5.97;;;;;;;;;;4974389;28;20037;-75
2022/05/08 01:33:31;;;;;;;30.40;7.47;;;;;;;;;;4974518;28;20026;-74
2022/05/08 01:35:57;;;;;;;21.33;6.50;;;;;;;;;;4974098;28;20111;-75
2022/05/08 01:38:23;;;;;;;20.27;5.75;;;;;;;;;;4966506;28;20124;-75
2022/05/08 01:40:53;;;;;;;33.15;5.90;;;;;;;;;;4955293;29;20027;-74
2022/05/08 01:43:19;;;;;;;23.35;6.43;;;;;;;;;;4955210;29;20059;-75
2022/05/08 01:45:45;;;;;;;23.23;5.75;;;;;;;;;;4955009;29;20050;-75
2022/05/08 01:48:23;;;;;;;68.85;8.25;;;;;;;;;;4955380;29;20135;-75
2022/05/08 01:50:59;;;;;;;19.38;5.63;;;;;;;;;;4955305;29;20462;-75
2022/05/08 01:53:26;;;;;;;18.50;5.75;;;;;;;;;;4955324;29;20373;-74
2022/05/08 01:55:56;;;;;;;23.25;5.53;;;;;;;;;;4954646;29;20023;-75
2022/05/08 01:58:25;;;;;;;19.42;5.03;;;;;;;;;;4974030;28;20034;-75
2022/05/08 02:00:52;;;;;;;33.97;5.63;;;;;;;;;;4972751;28;20118;-74
2022/05/08 02:03:19;;;;;;;25.83;5.88;;;;;;;;;;4973996;28;20090;-75
2022/05/08 02:05:45;;;;;;;31.67;5.70;;;;;;;;;;4972234;28;20026;-75
2022/05/08 02:08:12;;;;;;;24.35;5.82;;;;;;;;;;4973817;28;20031;-75
2022/05/08 02:10:38;;;;;;;21.40;5.13;;;;;;;;;;4973503;28;20454;-75
2022/05/08 02:13:04;;;;;;;23.42;5.82;;;;;;;;;;4973423;28;20035;-75
2022/05/08 02:15:31;;;;;;;21.58;5.57;;;;;;;;;;4973496;28;20528;-75
2022/05/08 02:18:01;;;;;;;28.05;4.85;;;;;;;;;;4973636;28;20027;-75
2022/05/08 02:20:27;;;;;;;25.30;5.40;;;;;;;;;;4973252;28;20026;-75
2022/05/08 02:22:53;;;;;;;32.08;5.55;;;;;;;;;;4973585;28;20461;-75
2022/05/08 02:25:20;;;;;;;26.90;5.68;;;;;;;;;;4973600;28;20681;-75
2022/05/08 02:27:49;;;;;;;24.83;5.68;;;;;;;;;;4974020;28;20027;-74
2022/05/08 02:30:15;;;;;;;27.10;4.82;;;;;;;;;;4972807;28;20031;-74
2022/05/08 02:32:41;;;;;;;24.23;5.20;;;;;;;;;;4974090;28;20421;-75
2022/05/08 02:35:09;;;;;;;26.70;5.35;;;;;;;;;;4972629;28;20042;-75
2022/05/08 02:37:36;;;;;;;29.00;5.10;;;;;;;;;;4972405;28;20023;-75
2022/05/08 02:40:02;;;;;;;20.45;5.10;;;;;;;;;;4971827;28;20071;-75
2022/05/08 02:42:28;;;;;;;26.98;4.72;;;;;;;;;;4973879;28;20039;-75
2022/05/08 02:44:54;;;;;;;24.67;4.38;;;;;;;;;;4974039;28;20409;-74
2022/05/08 02:47:20;;;;;;;28.65;4.70;;;;;;;;;;4973843;28;20045;-75
2022/05/08 02:49:46;;;;;;;24.50;5.10;;;;;;;;;;4973943;28;20023;-75
2022/05/08 02:52:12;;;;;;;29.13;4.85;;;;;;;;;;4973753;28;20022;-75
2022/05/08 02:54:38;;;;;;;32.55;6.03;;;;;;;;;;4973766;28;20026;-74
2022/05/08 02:59:50;;;;;;;20.63;4.13;;;;;;;;;;4974133;28;20120;-74
2022/05/08 03:02:16;;;;;;;27.92;4.85;;;;;;;;;;4973601;28;20137;-74
2022/05/08 03:04:42;;;;;;;26.27;4.47;;;;;;;;;;4973633;28;20034;-75
2022/05/08 03:07:08;;;;;;;25.40;4.72;;;;;;;;;;4973509;28;20058;-75
2022/05/08 03:09:34;;;;;;;23.05;5.00;;;;;;;;;;4959867;28;20034;-74
2022/05/08 03:12:00;;;;;;;25.08;5.07;;;;;;;;;;4954128;29;20066;-75
2022/05/08 03:14:26;;;;;;;21.30;4.25;;;;;;;;;;4971626;28;20058;-75
2022/05/08 03:16:53;;;;;;;28.73;4.95;;;;;;;;;;4973263;28;20033;-75
2022/05/08 03:19:21;;;;;;;27.40;4.40;;;;;;;;;;4971876;28;20022;-75
2022/05/08 03:21:51;;;;;;;33.13;4.60;;;;;;;;;;4973046;28;20039;-76
2022/05/08 03:24:17;;;;;;;23.52;4.65;;;;;;;;;;4971346;28;20448;-75
2022/05/08 03:26:43;;;;;;;31.00;4.07;;;;;;;;;;4972537;28;20043;-74
2022/05/08 03:29:09;;;;;;;19.00;4.30;;;;;;;;;;4971374;28;20034;-75
2022/05/08 03:31:35;;;;;;;26.20;5.05;;;;;;;;;;4972378;28;20038;-75
2022/05/08 03:34:01;;;;;;;23.42;4.20;;;;;;;;;;4972917;28;20449;-76
2022/05/08 03:36:27;;;;;;;23.95;4.18;;;;;;;;;;4972494;28;20138;-74
2022/05/08 03:38:53;;;;;;;34.88;5.50;;;;;;;;;;4960852;28;20034;-76
2022/05/08 03:41:19;;;;;;;24.15;5.38;;;;;;;;;;4953476;29;20500;-76
2022/05/08 03:43:46;;;;;;;30.27;4.82;;;;;;;;;;4953408;29;20074;-75
2022/05/08 03:46:13;;;;;;;19.75;4.07;;;;;;;;;;4953213;29;20030;-76
2022/05/08 03:48:39;;;;;;;31.75;4.38;;;;;;;;;;4953156;29;20038;-76
2022/05/08 03:51:05;;;;;;;36.33;4.30;;;;;;;;;;4952069;28;20030;-75
2022/05/08 03:53:32;;;;;;;28.48;5.47;;;;;;;;;;4952903;29;20023;-76
2022/05/08 03:55:58;;;;;;;33.08;4.30;;;;;;;;;;4953000;29;20023;-76
2022/05/08 03:58:24;;;;;;;31.70;4.63;;;;;;;;;;4972278;28;20062;-77
2022/05/08 04:00:50;;;;;;;31.45;5.13;;;;;;;;;;4970969;28;20035;-76
2022/05/08 04:03:16;;;;;;;22.25;4.40;;;;;;;;;;4972475;28;20031;-76
2022/05/08 04:05:42;;;;;;;18.52;3.83;;;;;;;;;;4972310;28;20042;-76
2022/05/08 04:08:08;;;;;;;24.30;4.38;;;;;;;;;;4972134;28;20038;-76
2022/05/08 04:10:34;;;;;;;23.58;4.97;;;;;;;;;;4972394;28;20108;-76
2022/05/08 04:13:00;;;;;;;28.63;4.35;;;;;;;;;;4972392;28;20102;-75
2022/05/08 04:18:11;;;;;;;26.33;5.07;;;;;;;;;;4972422;28;20096;-76
2022/05/08 04:20:38;;;;;;;26.73;4.30;;;;;;;;;;4972138;28;20023;-76
2022/05/08 04:25:52;;;;;;;33.50;4.13;;;;;;;;;;4972062;28;20378;-76
2022/05/08 04:28:21;;;;;;;23.80;4.18;;;;;;;;;;4970521;28;20589;-76
2022/05/08 04:30:48;;;;;;;26.33;4.18;;;;;;;;;;4971696;28;20031;-76
2022/05/08 04:33:14;;;;;;;28.88;4.30;;;;;;;;;;4972055;28;20088;-76
2022/05/08 04:35:40;;;;;;;23.52;4.75;;;;;;;;;;4971844;28;20023;-76
2022/05/08 04:38:06;;;;;;;26.15;4.00;;;;;;;;;;4971682;28;20026;-76
2022/05/08 04:40:32;;;;;;;25.80;4.13;;;;;;;;;;4971753;28;20019;-76
2022/05/08 04:42:59;;;;;;;24.55;4.30;;;;;;;;;;4971876;28;20062;-76
2022/05/08 04:45:25;;;;;;;21.95;4.38;;;;;;;;;;4970209;28;20433;-76
2022/05/08 04:47:51;;;;;;;24.92;3.90;;;;;;;;;;4971780;28;20027;-76
2022/05/08 04:50:17;;;;;;;23.90;4.18;;;;;;;;;;4971374;28;20089;-76
2022/05/08 04:52:43;;;;;;;23.30;4.07;;;;;;;;;;4969670;28;20031;-76
2022/05/08 04:55:09;;;;;;;32.88;5.30;;;;;;;;;;4969981;28;20121;-76
2022/05/08 04:57:35;;;;;;;33.78;5.10;;;;;;;;;;4972991;28;20019;-76
2022/05/08 05:00:02;;;;;;;27.92;4.68;;;;;;;;;;4973474;28;20114;-76
2022/05/08 05:02:28;;;;;;;29.02;4.03;;;;;;;;;;4972766;28;20473;-76
2022/05/08 05:04:54;;;;;;;18.17;3.70;;;;;;;;;;4971918;28;20477;-76
2022/05/08 05:07:20;;;;;;;29.05;5.10;;;;;;;;;;4971821;28;20027;-76
2022/05/08 05:09:46;;;;;;;21.45;3.38;;;;;;;;;;4973248;28;20101;-76
2022/05/08 05:12:12;;;;;;;29.92;4.50;;;;;;;;;;4973095;28;20533;-76
2022/05/08 05:14:38;;;;;;;21.20;4.32;;;;;;;;;;4973233;28;20081;-76
2022/05/08 05:17:05;;;;;;;32.30;4.88;;;;;;;;;;4973098;28;20058;-76
2022/05/08 05:19:31;;;;;;;29.08;4.15;;;;;;;;;;4973279;28;20018;-76
2022/05/08 05:21:57;;;;;;;29.20;4.93;;;;;;;;;;4972775;28;20035;-76
2022/05/08 05:24:23;;;;;;;22.52;4.38;;;;;;;;;;4972666;28;20030;-77
2022/05/08 05:26:49;;;;;;;26.42;4.38;;;;;;;;;;4970165;28;20031;-76
2022/05/08 05:29:16;;;;;;;27.20;3.78;;;;;;;;;;4972837;28;20050;-76
2022/05/08 05:31:42;;;;;;;19.67;4.00;;;;;;;;;;4972530;28;20061;-76
2022/05/08 05:34:08;;;;;;;23.83;4.03;;;;;;;;;;4971392;28;20115;-76
2022/05/08 05:36:34;;;;;;;19.90;4.57;;;;;;;;;;4972572;28;20035;-76
2022/05/08 05:39:00;;;;;;;28.30;4.60;;;;;;;;;;4972547;28;20015;-76
2022/05/08 05:41:26;;;;;;;16.60;4.00;;;;;;;;;;4972466;28;20743;-76
2022/05/08 05:43:53;;;;;;;21.30;4.05;;;;;;;;;;4959296;28;20047;-76
2022/05/08 05:49:04;;;;;;;26.05;4.53;;;;;;;;;;4952865;29;20067;-76
2022/05/08 05:51:30;;;;;;;18.23;3.63;;;;;;;;;;4953079;29;20023;-76
2022/05/08 05:53:56;;;;;;;28.67;3.80;;;;;;;;;;4953279;29;20019;-76
2022/05/08 05:56:22;;;;;;;22.30;3.85;;;;;;;;;;4935775;29;20023;-76
2022/05/08 05:58:48;;;;;;;21.02;3.83;;;;;;;;;;4953157;29;20385;-77
2022/05/08 06:01:14;;;;;;;20.52;3.50;;;;;;;;;;4953056;29;20039;-77
2022/05/08 06:03:40;;;;;;;19.13;3.50;;;;;;;;;;4953264;29;20486;-77
2022/05/08 06:06:06;;;;;;;26.02;3.95;;;;;;;;;;4935688;29;20027;-76
2022/05/08 06:08:32;;;;;;;21.05;4.00;;;;;;;;;;4953456;29;20090;-77
2022/05/08 06:10:58;;;;;;;21.88;3.85;;;;;;;;;;4953207;29;20827;-76
2022/05/08 06:13:24;;;;;;;21.50;4.45;;;;;;;;;;4953357;29;20028;-76
2022/05/08 06:15:50;;;;;;;17.65;3.97;;;;;;;;;;4955472;28;20106;-77
2022/05/08 06:18:16;;;;;;;24.45;3.97;;;;;;;;;;4956836;29;20061;-77
2022/05/08 06:20:42;;;;;;;21.40;3.13;;;;;;;;;;4956692;29;20063;-77
2022/05/08 06:23:08;;;;;;;27.42;3.58;;;;;;;;;;4956362;29;20034;-77
2022/05/08 06:25:34;;;;;;;18.95;3.17;;;;;;;;;;4955405;29;20030;-76
2022/05/08 06:28:00;;;;;;;17.42;3.47;;;;;;;;;;4956282;29;20030;-77
2022/05/08 06:30:26;;;;;;;23.70;3.83;;;;;;;;;;4956031;29;20019;-76
2022/05/08 06:32:53;;;;;;;26.52;4.18;;;;;;;;;;4956170;29;20096;-77
2022/05/08 06:35:19;;;;;;;19.70;3.40;;;;;;;;;;4955823;29;20025;-77
2022/05/08 06:37:45;;;;;;;16.20;2.78;;;;;;;;;;4956070;29;20053;-77
2022/05/08 06:40:11;;;;;;;19.17;3.05;;;;;;;;;;4953423;29;20020;-77
2022/05/08 06:42:38;;;;;;;19.50;2.63;;;;;;;;;;4956116;28;20039;-76
2022/05/08 06:45:05;;;;;;;15.80;2.58;;;;;;;;;;4955492;29;20120;-77
2022/05/08 06:47:31;;;;;;;10.68;2.10;;;;;;;;;;4938427;29;20553;-77
2022/05/08 06:49:57;;;;;;;13.25;2.05;;;;;;;;;;4955865;29;20042;-77
2022/05/08 06:52:23;;;;;;;17.80;2.90;;;;;;;;;;4938331;29;20026;-77
2022/05/08 06:54:49;;;;;;;18.35;2.85;;;;;;;;;;4955648;29;20019;-77
2022/05/08 06:57:15;;;;;;;17.00;2.60;;;;;;;;;;4955798;29;20381;-77
2022/05/08 07:02:25;;;;;;;13.88;2.63;;;;;;;;;;4954752;29;20058;-77
2022/05/08 07:04:51;;;;;;;14.82;2.60;;;;;;;;;;4955551;29;20027;-76
2022/05/08 07:07:17;;;;;;;15.02;2.17;;;;;;;;;;4955528;29;20023;-77
2022/05/08 07:09:43;;;;;;;17.63;2.63;;;;;;;;;;4955549;29;20047;-77
2022/05/08 07:12:10;;;;;;;15.88;2.30;;;;;;;;;;4955559;29;20038;-77
2022/05/08 07:14:36;;;;;;;19.38;2.50;;;;;;;;;;4955422;29;20024;-77
2022/05/08 07:17:02;;;;;;;15.13;2.70;;;;;;;;;;4955296;29;20026;-76
2022/05/08 07:19:28;;;;;;;14.60;2.10;;;;;;;;;;4955712;29;20110;-76
2022/05/08 07:21:54;;;;;;;12.63;2.30;;;;;;;;;;4955650;29;20062;-76
2022/05/08 07:24:20;;;;;;;19.73;2.17;;;;;;;;;;4955602;29;20066;-76
2022/05/08 07:26:47;;;;;;;15.02;2.50;;;;;;;;;;4955277;28;20421;-76
2022/05/08 07:29:13;;;;;;;18.20;1.95;;;;;;;;;;4938253;29;20027;-76
2022/05/08 07:31:42;;;;;;;12.65;2.55;;;;;;;;;;4955299;29;20183;-76
2022/05/08 07:36:53;;;;;;;10.85;2.13;;;;;;;;;;4955539;29;20450;-76
2022/05/08 07:39:19;;;;;;;12.60;2.17;;;;;;;;;;4955068;29;20496;-76
2022/05/08 07:41:45;;;;;;;14.48;2.33;;;;;;;;;;4955187;29;20039;-76
2022/05/08 07:44:11;;;;;;;11.80;1.83;;;;;;;;;;4970874;28;20401;-76
2022/05/08 07:46:38;;;;;;;17.17;2.08;;;;;;;;;;4974096;28;20039;-76
2022/05/08 07:49:04;;;;;;;18.35;2.70;;;;;;;;;;4974508;28;20030;-77
2022/05/08 07:51:30;;;;;;;13.30;1.80;;;;;;;;;;4974184;28;20023;-77
2022/05/08 07:53:58;;;;;;;17.20;2.78;;;;;;;;;;4974206;28;20053;-76
2022/05/08 07:56:24;;;;;;;13.90;2.20;;;;;;;;;;4974352;28;20026;-75
2022/05/08 07:58:50;;;;;;;13.07;2.20;;;;;;;;;;4974199;28;20045;-76
2022/05/08 08:01:16;;;;;;;25.35;2.50;;;;;;;;;;4974521;28;20481;-75
2022/05/08 08:03:42;;;;;;;13.05;2.15;;;;;;;;;;4974667;28;20176;-73
2022/05/08 08:06:08;;;;;;;10.05;2.38;;;;;;;;;;4965721;28;20327;-74
2022/05/08 08:08:34;;;;;;;14.15;2.40;;;;;;;;;;4954880;29;20023;-74
2022/05/08 08:11:03;;;;;;;10.88;2.10;;;;;;;;;;4959452;28;20026;-75
2022/05/08 08:13:31;;;;;;;18.17;2.10;;;;;;;;;;4973945;28;20023;-75
2022/05/08 08:15:57;;;;;;;14.88;2.45;;;;;;;;;;4973871;28;20481;-75
2022/05/08 08:18:23;;;;;;;22.88;2.67;;;;;;;;;;4973633;28;20129;-75
2022/05/08 08:20:49;;;;;;;20.70;2.45;;;;;;;;;;4972161;28;20121;-75
2022/05/08 08:23:15;;;;;;;9.32;1.45;;;;;;;;;;4973882;28;20027;-75
2022/05/08 08:25:42;;;;;;;10.32;2.05;;;;;;;;;;4972598;28;20385;-76
2022/05/08 08:28:08;;;;;;;12.20;2.03;;;;;;;;;;4973771;28;20106;-74
2022/05/08 08:30:35;;;;;;;11.93;2.33;;;;;;;;;;4973453;28;20018;-76
2022/05/08 08:33:01;;;;;;;14.80;2.80;;;;;;;;;;4973472;28;20033;-76
2022/05/08 08:35:27;;;;;;;9.85;2.20;;;;;;;;;;4973256;28;20103;-76
2022/05/08 08:37:53;;;;;;;9.98;1.85;;;;;;;;;;4968640;28;20462;-76
2022/05/08 08:40:20;;;;;;;13.48;1.95;;;;;;;;;;4953372;29;20401;-76
2022/05/08 08:42:46;;;;;;;17.05;2.03;;;;;;;;;;4953931;29;20565;-76
2022/05/08 08:47:57;;;;;;;17.33;2.35;;;;;;;;;;4954287;29;20089;-76
2022/05/08 08:50:24;;;;;;;13.40;2.10;;;;;;;;;;4953768;29;20118;-76
2022/05/08 08:52:50;;;;;;;12.55;2.40;;;;;;;;;;4953876;29;20035;-76
2022/05/08 08:55:17;;;;;;;9.45;2.38;;;;;;;;;;4953788;29;20486;-76
2022/05/08 08:57:44;;;;;;;10.68;2.10;;;;;;;;;;4953884;29;20413;-76
2022/05/08 09:00:10;;;;;;;12.73;2.35;;;;;;;;;;4953753;29;20024;-76
2022/05/08 09:02:37;;;;;;;14.52;2.65;;;;;;;;;;4953563;29;20107;-76
2022/05/08 09:05:04;;;;;;;9.40;1.80;;;;;;;;;;4953686;29;20088;-76
2022/05/08 09:07:51;;;;;;;13.27;2.65;;;;;;;;;;4953646;29;20462;-76
2022/05/08 09:10:18;;;;;;;9.68;1.90;;;;;;;;;;4953414;29;20027;-76
2022/05/08 09:12:54;;;;;;;12.70;2.47;;;;;;;;;;4953543;29;20058;-75
2022/05/08 09:15:23;;;;;;;11.95;2.92;;;;;;;;;;4953325;29;20015;-76
2022/05/08 09:17:51;;;;;;;8.68;2.10;;;;;;;;;;4969210;28;20034;-76
2022/05/08 09:20:26;;;;;;;13.05;2.35;;;;;;;;;;4972649;28;20069;-77
2022/05/08 09:23:01;;;;;;;13.25;2.00;;;;;;;;;;4972633;28;20485;-76
2022/05/08 09:25:44;;;;;;;13.07;1.92;;;;;;;;;;4972684;28;20080;-76
2022/05/08 09:28:10;;;;;;;12.43;2.20;;;;;;;;;;4972617;28;20030;-76
2022/05/08 09:30:53;;;;;;;12.63;2.00;;;;;;;;;;4972382;28;20027;-76
2022/05/08 09:33:23;;;;;;;7.88;1.90;;;;;;;;;;4972654;28;20027;-76
2022/05/08 09:35:49;;;;;;;10.50;1.98;;;;;;;;;;4972619;28;20026;-76
2022/05/08 09:38:15;;;;;;;10.15;1.90;;;;;;;;;;4972597;28;20019;-76
2022/05/08 09:40:41;;;;;;;11.27;2.53;;;;;;;;;;4972442;28;20106;-76
2022/05/08 09:43:26;;;;;;;9.07;1.75;;;;;;;;;;4972738;28;20066;-76
2022/05/08 09:45:59;;;;;;;10.25;2.00;;;;;;;;;;4972466;28;20154;-76
2022/05/08 09:48:28;;;;;;;15.73;1.92;;;;;;;;;;4972701;28;20042;-76
2022/05/08 09:50:58;;;;;;;13.48;2.40;;;;;;;;;;4976295;28;20031;-76
2022/05/08 09:53:25;;;;;;;8.05;1.83;;;;;;;;;;4976517;28;20086;-76
2022/05/08 09:55:54;;;;;;;13.48;2.08;;;;;;;;;;4976393;28;20026;-76
2022/05/08 09:58:21;;;;;;;5.70;1.50;;;;;;;;;;4976407;28;20034;-76
2022/05/08 10:00:47;;;;;;;13.25;1.92;;;;;;;;;;4976230;28;20480;-75
2022/05/08 10:03:15;;;;;;;9.38;1.90;;;;;;;;;;4976285;28;20034;-75
2022/05/08 10:05:42;;;;;;;13.18;1.80;;;;;;;;;;4975950;28;20015;-76
2022/05/08 10:08:08;;;;;;;10.10;2.15;;;;;;;;;;4976180;28;20027;-75
2022/05/08 10:13:54;;;;;;;8.50;1.77;;;;;;;;;;4976335;28;20487;-75
2022/05/08 10:16:38;;;;;;;9.00;1.48;;;;;;;;;;4975953;28;20165;-76
2022/05/08 10:19:20;;;;;;;8.98;2.20;;;;;;;;;;4956643;29;20327;-76
2022/05/08 10:22:05;;;;;;;9.05;1.70;;;;;;;;;;4956651;28;20377;-76
2022/05/08 10:24:32;;;;;;;8.07;1.70;;;;;;;;;;4955208;29;20024;-75
2022/05/08 10:27:17;;;;;;;8.15;1.60;;;;;;;;;;4956533;29;20436;-75
2022/05/08 10:29:55;;;;;;;11.40;1.83;;;;;;;;;;4956510;28;20381;-75
2022/05/08 10:32:33;;;;;;;8.45;1.95;;;;;;;;;;4956284;29;20034;-75
2022/05/08 10:35:12;;;;;;;5.47;1.52;;;;;;;;;;4955025;29;20028;-75
2022/05/08 10:37:39;;;;;;;11.52;1.85;;;;;;;;;;4957925;28;20086;-75
2022/05/08 10:40:28;;;;;;;6.47;1.60;;;;;;;;;;4975654;28;20429;-75
2022/05/08 10:42:55;;;;;;;7.78;1.60;;;;;;;;;;4975520;28;20054;-75
2022/05/08 10:45:33;;;;;;;7.72;1.75;;;;;;;;;;4975330;28;20034;-75
2022/05/08 10:48:18;;;;;;;6.57;1.88;;;;;;;;;;4975568;28;20414;-75
2022/05/08 10:50:51;;;;;;;7.40;1.40;;;;;;;;;;4973936;28;20057;-75
2022/05/08 10:53:21;;;;;;;7.50;1.67;;;;;;;;;;4975537;28;20113;-75
2022/05/08 10:55:48;;;;;;;8.57;1.75;;;;;;;;;;4975180;28;20077;-75
2022/05/08 10:58:14;;;;;;;13.98;2.05;;;;;;;;;;4975515;28;20055;-75
2022/05/08 11:00:40;;;;;;;6.30;1.42;;;;;;;;;;4974602;28;20027;-75
2022/05/08 11:03:06;;;;;;;10.48;1.40;;;;;;;;;;4975111;28;20390;-75
2022/05/08 11:05:33;;;;;;;10.02;2.00;;;;;;;;;;4975062;28;20474;-75
2022/05/08 11:08:07;;;;;;;10.15;1.38;;;;;;;;;;4975176;28;20027;-75
2022/05/08 11:10:39;;;;;;;11.55;1.83;;;;;;;;;;4975107;28;20046;-75
2022/05/08 11:13:06;;;;;;;12.57;1.58;;;;;;;;;;4975106;28;20110;-75
2022/05/08 11:15:33;;;;;;;9.57;2.03;;;;;;;;;;4974803;28;20026;-75
2022/05/08 11:18:03;;;;;;;8.55;1.73;;;;;;;;;;4974898;28;20512;-75
2022/05/08 11:20:30;;;;;;;7.35;1.30;;;;;;;;;;4974795;28;20026;-75
2022/05/08 11:22:56;;;;;;;5.75;1.40;;;;;;;;;;4974908;28;20030;-75
2022/05/08 11:25:23;;;;;;;8.30;1.42;;;;;;;;;;4974666;28;20035;-75
2022/05/08 11:27:52;;;;;;;7.20;1.25;;;;;;;;;;4974773;28;20027;-75
2022/05/08 11:30:32;;;;;;;9.43;1.85;;;;;;;;;;4974564;28;20105;-75
2022/05/08 11:36:06;;;;;;;6.18;1.20;;;;;;;;;;4974653;28;20042;-74
2022/05/08 11:38:32;;;;;;;9.93;1.50;;;;;;;;;;4974597;28;20026;-75
2022/05/08 11:40:59;;;;;;;4.03;1.13;;;;;;;;;;4974421;28;20014;-74
2022/05/08 11:43:39;;;;;;;4.57;1.30;;;;;;;;;;4974501;28;20089;-74
2022/05/08 11:46:06;;;;;;;6.63;1.15;;;;;;;;;;4974239;28;20488;-74
2022/05/08 11:48:37;;;;;;;5.80;1.40;;;;;;;;;;4974495;28;20353;-74
2022/05/08 11:51:04;;;;;;;6.47;1.20;;;;;;;;;;4974230;28;20019;-75
2022/05/08 11:53:38;;;;;;;7.00;1.40;;;;;;;;;;4974313;28;20026;-74
2022/05/08 11:56:20;;;;;;;7.43;1.60;;;;;;;;;;4974257;28;20038;-74
2022/05/08 11:58:47;;;;;;;11.25;1.48;;;;;;;;;;4974314;28;20022;-75
2022/05/08 12:01:23;;;;;;;5.97;1.45;;;;;;;;;;4972687;28;20035;-74
2022/05/08 12:03:49;;;;;;;6.65;1.00;;;;;;;;;;4974097;28;20110;-74
2022/05/08 12:06:15;;;;;;;5.75;1.23;;;;;;;;;;4964410;28;20031;-74
2022/05/08 12:08:42;;;;;;;6.50;1.13;;;;;;;;;;4954749;29;20458;-75
2022/05/08 12:11:08;;;;;;;4.07;1.30;;;;;;;;;;4969156;28;20388;-75
2022/05/08 12:13:54;;;;;;;7.20;1.80;;;;;;;;;;4953720;28;20019;-75
2022/05/08 12:16:20;;;;;;;8.23;1.52;;;;;;;;;;4971320;28;20469;-75
2022/05/08 12:19:05;;;;;;;8.60;1.58;;;;;;;;;;4973808;28;20138;-75
2022/05/08 12:21:32;;;;;;;5.82;1.20;;;;;;;;;;4973597;28;20035;-74
2022/05/08 12:23:59;;;;;;;7.97;1.42;;;;;;;;;;4973800;28;20026;-74
2022/05/08 12:26:25;;;;;;;6.85;1.75;;;;;;;;;;4973616;28;20065;-74
2022/05/08 12:28:51;;;;;;;6.78;1.52;;;;;;;;;;4973731;28;20062;-74
2022/05/08 12:31:17;;;;;;;9.05;1.52;;;;;;;;;;4973376;28;20077;-74
2022/05/08 12:33:44;;;;;;;5.38;2.05;;;;;;;;;;4973559;28;20019;-74
2022/05/08 12:36:10;;;;;;;6.25;1.58;;;;;;;;;;4973298;28;20022;-74
2022/05/08 12:38:36;;;;;;;4.35;1.20;;;;;;;;;;4973452;28;20456;-74
2022/05/08 12:41:02;;;;;;;7.18;1.50;;;;;;;;;;4973349;28;20453;-74
2022/05/08 12:43:28;;;;;;;4.97;1.27;;;;;;;;;;4973505;28;20058;-74
2022/05/08 12:45:54;;;;;;;7.32;1.45;;;;;;;;;;4973151;28;20027;-74
2022/05/08 12:48:21;;;;;;;7.03;1.50;;;;;;;;;;4973236;28;20085;-74
2022/05/08 12:50:48;;;;;;;3.72;1.23;;;;;;;;;;4973174;28;20034;-74
2022/05/08 12:53:14;;;;;;;5.65;1.40;;;;;;;;;;4973217;28;20057;-74
2022/05/08 12:55:40;;;;;;;5.22;1.50;;;;;;;;;;4973097;28;20049;-74
2022/05/08 13:00:51;;;;;;;4.40;1.17;;;;;;;;;;4973255;28;20093;-74
2022/05/08 13:03:17;;;;;;;3.90;1.38;;;;;;;;;;4973076;28;20027;-75
2022/05/08 13:05:43;;;;;;;7.13;1.30;;;;;;;;;;4972656;28;20030;-75
2022/05/08 13:08:09;;;;;;;6.80;1.60;;;;;;;;;;4973084;28;20097;-74
2022/05/08 13:10:35;;;;;;;4.63;1.55;;;;;;;;;;4973000;28;20030;-74
2022/05/08 13:13:02;;;;;;;8.27;1.50;;;;;;;;;;4972796;28;20394;-74
2022/05/08 13:15:28;;;;;;;5.93;1.40;;;;;;;;;;4972876;28;20033;-74
2022/05/08 13:17:54;;;;;;;5.38;1.40;;;;;;;;;;4972860;28;20094;-74
2022/05/08 13:20:20;;;;;;;4.97;1.15;;;;;;;;;;4972605;28;20125;-75
2022/05/08 13:22:46;;;;;;;6.55;1.48;;;;;;;;;;4972988;28;20043;-75
2022/05/08 13:25:12;;;;;;;4.60;1.23;;;;;;;;;;4978272;28;20031;-75
2022/05/08 13:27:39;;;;;;;6.60;1.60;;;;;;;;;;4978049;28;20023;-75
2022/05/08 13:30:06;;;;;;;6.40;1.42;;;;;;;;;;4979417;28;20441;-75
2022/05/08 13:32:36;;;;;;;5.25;1.38;;;;;;;;;;4979095;28;20031;-75
2022/05/08 13:35:02;;;;;;;7.00;1.40;;;;;;;;;;4979273;28;20110;-75
2022/05/08 13:37:30;;;;;;;5.43;1.45;;;;;;;;;;4978607;28;20031;-75
2022/05/08 13:39:59;;;;;;;7.63;1.70;;;;;;;;;;4959886;28;20034;-75
2022/05/08 13:42:25;;;;;;;4.90;1.33;;;;;;;;;;4959971;28;20047;-75
2022/05/08 13:44:51;;;;;;;5.43;1.42;;;;;;;;;;4959624;29;20051;-75
2022/05/08 13:47:17;;;;;;;6.25;1.25;;;;;;;;;;4959821;29;20103;-75
2022/05/08 13:49:44;;;;;;;4.88;1.38;;;;;;;;;;4959786;29;20034;-75
2022/05/08 13:52:10;;;;;;;7.90;1.38;;;;;;;;;;4959725;28;20110;-74
2022/05/08 13:54:40;;;;;;;7.55;1.73;;;;;;;;;;4959749;29;20481;-75
2022/05/08 13:57:08;;;;;;;5.75;1.25;;;;;;;;;;4959879;28;20146;-75
2022/05/08 13:59:34;;;;;;;4.78;1.38;;;;;;;;;;4959714;28;20028;-75
2022/05/08 14:02:00;;;;;;;5.93;1.55;;;;;;;;;;4959717;28;20027;-75
2022/05/08 14:04:26;;;;;;;5.55;1.63;;;;;;;;;;4959595;29;20036;-75
2022/05/08 14:06:52;;;;;;;7.65;1.75;;;;;;;;;;4959367;29;20733;-75
2022/05/08 14:09:18;;;;;;;5.35;1.50;;;;;;;;;;4959792;28;20027;-81
2022/05/08 14:11:44;;;;;;;5.10;1.50;;;;;;;;;;4958949;28;20492;-79
2022/05/08 14:14:10;;;;;;;3.75;1.02;;;;;;;;;;4961212;28;20023;-85
2022/05/08 14:16:36;;;;;;;7.20;1.50;;;;;;;;;;4961232;28;20031;-82
2022/05/08 14:19:02;;;;;;;7.70;1.75;;;;;;;;;;4961154;29;20070;-84
2022/05/08 14:21:28;;;;;;;5.10;1.30;;;;;;;;;;4961137;29;20019;-83
2022/05/08 14:23:54;;;;;;;5.45;1.50;;;;;;;;;;4961396;29;20019;-87
2022/05/08 14:26:20;;;;;;;6.95;1.23;;;;;;;;;;4960976;29;20039;-83
2022/05/08 14:28:46;;;;;;;4.78;1.40;;;;;;;;;;4960078;28;20455;-79
2022/05/08 14:36:42;;;;;;;10.25;1.77;;;;;;;;;;4956404;28;20042;-76
2022/05/08 14:39:08;;;;;;;4.75;1.67;;;;;;;;;;4970402;28;20116;-76
2022/05/08 14:41:34;;;;;;;7.35;1.65;;;;;;;;;;4975962;28;20058;-77
2022/05/08 14:44:00;;;;;;;4.22;1.30;;;;;;;;;;4976221;28;20091;-77
2022/05/08 14:46:27;;;;;;;6.40;1.70;;;;;;;;;;4975991;28;20117;-78
2022/05/08 14:48:53;;;;;;;5.43;1.40;;;;;;;;;;4976030;28;20034;-77
2022/05/08 14:51:19;;;;;;;6.38;1.85;;;;;;;;;;4975964;28;20037;-77
2022/05/08 14:53:46;;;;;;;8.05;1.50;;;;;;;;;;4975898;28;20030;-77
2022/05/08 14:56:13;;;;;;;8.88;1.67;;;;;;;;;;4976006;28;20015;-77
2022/05/08 14:58:39;;;;;;;7.05;1.40;;;;;;;;;;4974620;28;20076;-78
2022/05/08 15:01:05;;;;;;;8.23;2.20;;;;;;;;;;4975821;28;20027;-79
2022/05/08 15:03:31;;;;;;;7.55;1.77;;;;;;;;;;4975598;28;20027;-77
2022/05/08 15:05:57;;;;;;;5.13;1.60;;;;;;;;;;4968543;28;20035;-77
2022/05/08 15:08:23;;;;;;;5.80;1.80;;;;;;;;;;4956728;29;20042;-83